KLRJ/LRJ METAR and TAF weather

Enter ICAO airport designator
Station Type Date Time Source
KLRJ METAR 2019/08/22 06:55 UTC NOAA

KLRJ 220655Z AUTO 00000KT 10SM CLR 15/14 A3008 RMK AO2


Station Type Date Time Source
KLRJ Decoded METAR 2019/08/22 06:55 UTC NOAA

Station name not available
Aug 22, 2019 - 02:55 AM EDT / 2019.08.22 0655 UTC
Wind: Calm:0
Visibility: 10 mile(s):0
Sky conditions: clear
Temperature: 59 F (15 C)
Dew Point: 57 F (14 C)
Relative Humidity: 93%
Pressure (altimeter): 30.08 in. Hg (1018 hPa)
ob: KLRJ 220655Z AUTO 00000KT 10SM CLR 15/14 A3008 RMK AO2
cycle: 7

Station Type Date Time Source
KLRJ TAF UTC NOAA

Error!

Example: see airport list